Time;durP1;ratioP1;P1;durP2;ratioP2;P2;SDS_P1;SDS_P2;PMS_P1;PMS_P2;Temp;Humidity;BMP_temperature;BMP_pressure;BME280_temperature;BME280_humidity;BME280_pressure;Samples;Min_cycle;Max_cycle;Signal;HPM_P1;HPM_P2
2023/10/05 00:01:56;;;;;;;4.93;1.20;;;14.70;99.90;;;;;;5053573;28;20113;-53
2023/10/05 00:04:26;;;;;;;6.25;1.58;;;14.70;99.90;;;;;;5053034;28;20063;-54
2023/10/05 00:06:54;;;;;;;5.95;1.50;;;14.70;99.90;;;;;;5048333;28;20045;-54
2023/10/05 00:09:24;;;;;;;9.18;1.50;;;14.70;99.90;;;;;;5049220;28;20056;-53
2023/10/05 00:11:53;;;;;;;8.70;1.65;;;14.60;99.90;;;;;;5031898;28;20044;-53
2023/10/05 00:14:21;;;;;;;7.03;2.20;;;14.70;99.90;;;;;;5060491;28;20296;-51
2023/10/05 00:16:48;;;;;;;7.43;2.17;;;14.60;99.90;;;;;;5046432;28;20052;-53
2023/10/05 00:19:17;;;;;;;8.63;1.65;;;14.70;99.90;;;;;;5017502;28;20044;-52
2023/10/05 00:21:52;;;;;;;9.07;1.33;;;14.70;99.90;;;;;;5016855;28;20091;-53
2023/10/05 00:24:28;;;;;;;11.07;1.85;;;14.60;99.90;;;;;;5041922;28;20357;-53
2023/10/05 00:26:56;;;;;;;6.30;1.50;;;14.70;99.90;;;;;;5017793;28;20046;-56
2023/10/05 00:29:29;;;;;;;5.60;1.80;;;14.60;99.90;;;;;;5022024;28;20411;-54
2023/10/05 00:32:00;;;;;;;9.00;1.98;;;14.70;99.90;;;;;;5055433;28;20324;-54
2023/10/05 00:34:28;;;;;;;9.93;1.83;;;14.70;99.90;;;;;;5050543;28;20095;-53
2023/10/05 00:36:59;;;;;;;9.10;1.85;;;14.70;99.90;;;;;;5056507;28;20095;-54
2023/10/05 00:39:31;;;;;;;7.78;2.00;;;14.70;99.90;;;;;;5033682;28;20044;-60
2023/10/05 00:44:32;;;;;;;10.30;1.73;;;14.70;99.90;;;;;;5019195;28;20442;-56
2023/10/05 00:47:06;;;;;;;5.03;1.33;;;14.70;99.90;;;;;;5006122;28;20498;-55
2023/10/05 00:49:45;;;;;;;11.25;1.55;;;14.70;99.90;;;;;;5048205;28;20406;-55
2023/10/05 00:52:24;;;;;;;13.32;2.53;;;14.70;99.90;;;;;;5024480;28;20064;-55
2023/10/05 00:55:11;;;;;;;2.97;1.10;;;14.70;99.90;;;;;;4694784;28;10000294;-53
2023/10/05 00:57:39;;;;;;;5.55;1.27;;;14.70;99.90;;;;;;5028962;28;20353;-53
2023/10/05 01:03:22;;;;;;;6.18;1.40;;;14.70;99.90;;;;;;5013041;28;20095;-55
2023/10/05 01:06:10;;;;;;;6.95;1.73;;;14.70;99.90;;;;;;5051265;28;20084;-55
2023/10/05 01:08:48;;;;;;;6.85;1.80;;;14.60;99.90;;;;;;5040828;28;20041;-54
2023/10/05 01:11:25;;;;;;;6.50;1.83;;;14.70;99.90;;;;;;5035426;28;20484;-54
2023/10/05 01:13:58;;;;;;;8.15;2.13;;;14.60;99.90;;;;;;5047707;28;20645;-53
2023/10/05 01:16:25;;;;;;;7.25;2.08;;;14.60;99.90;;;;;;5062527;28;20048;-54
2023/10/05 01:18:52;;;;;;;5.75;1.52;;;14.70;99.90;;;;;;5033802;28;20080;-54
2023/10/05 01:21:19;;;;;;;9.55;1.77;;;14.70;99.90;;;;;;5052093;28;20483;-54
2023/10/05 01:23:48;;;;;;;6.55;2.47;;;14.60;99.90;;;;;;5003335;28;20102;-52
2023/10/05 01:26:15;;;;;;;7.20;2.03;;;14.60;99.90;;;;;;5017116;28;20419;-54
2023/10/05 01:28:42;;;;;;;10.05;1.67;;;14.60;99.90;;;;;;5058532;28;20113;-54
2023/10/05 01:31:16;;;;;;;4.10;1.60;;;14.60;99.90;;;;;;5060936;28;20545;-54
2023/10/05 01:33:45;;;;;;;8.18;1.85;;;14.60;99.90;;;;;;5050325;28;20048;-54
2023/10/05 01:36:12;;;;;;;8.02;2.45;;;14.60;99.90;;;;;;5045695;28;20133;-53
2023/10/05 01:38:40;;;;;;;7.00;1.60;;;14.60;99.90;;;;;;5057862;28;20110;-53
2023/10/05 01:41:10;;;;;;;7.78;1.75;;;14.50;99.90;;;;;;5013927;28;20056;-55
2023/10/05 01:43:42;;;;;;;4.60;1.20;;;14.60;99.90;;;;;;5020698;28;20045;-52
2023/10/05 01:46:13;;;;;;;6.95;1.80;;;14.60;99.90;;;;;;5027374;28;20053;-53
2023/10/05 01:48:41;;;;;;;7.65;1.45;;;14.70;99.90;;;;;;5055112;28;20041;-53
2023/10/05 01:51:10;;;;;;;7.40;1.33;;;14.50;99.90;;;;;;5047024;28;20053;-54
2023/10/05 01:53:39;;;;;;;6.55;1.85;;;14.50;99.90;;;;;;5020636;28;20041;-57
2023/10/05 01:56:20;;;;;;;6.57;1.85;;;14.50;99.90;;;;;;5048795;28;20048;-54
2023/10/05 01:58:50;;;;;;;8.73;1.58;;;14.50;99.90;;;;;;5058624;28;20041;-54
2023/10/05 02:01:20;;;;;;;9.88;2.50;;;14.50;99.90;;;;;;5047084;28;20056;-51
2023/10/05 02:03:54;;;;;;;9.50;1.70;;;14.50;99.90;;;;;;5052685;28;20076;-54
2023/10/05 02:06:21;;;;;;;6.00;1.50;;;14.50;99.90;;;;;;5067453;28;20061;-52
2023/10/05 02:08:48;;;;;;;5.35;1.77;;;14.50;99.90;;;;;;5035928;28;20280;-54
2023/10/05 02:11:24;;;;;;;4.38;1.70;;;14.50;99.90;;;;;;5020620;28;20461;-53
2023/10/05 02:13:52;;;;;;;5.70;1.88;;;14.60;99.90;;;;;;5061581;28;20041;-54
2023/10/05 02:16:21;;;;;;;6.35;1.70;;;14.60;99.90;;;;;;5030461;28;20060;-54
2023/10/05 02:18:48;;;;;;;11.02;2.03;;;14.60;99.90;;;;;;5037131;28;20079;-51
2023/10/05 02:21:17;;;;;;;6.78;1.73;;;14.60;99.90;;;;;;5052193;28;20060;-53
2023/10/05 02:23:46;;;;;;;6.10;1.35;;;14.60;99.90;;;;;;5041234;28;20106;-53
2023/10/05 02:26:33;;;;;;;9.90;1.67;;;14.50;99.90;;;;;;5003123;28;20423;-52
2023/10/05 02:29:13;;;;;;;7.57;1.50;;;14.60;99.90;;;;;;5024113;28;20042;-52
2023/10/05 02:31:56;;;;;;;8.43;1.65;;;14.60;99.90;;;;;;5068393;28;20053;-53
2023/10/05 02:34:24;;;;;;;4.25;1.38;;;14.50;99.90;;;;;;5059121;28;20114;-52
2023/10/05 02:36:54;;;;;;;8.60;1.50;;;14.50;99.90;;;;;;5051783;28;20056;-53
2023/10/05 02:39:24;;;;;;;5.22;1.27;;;14.50;99.90;;;;;;5053830;28;20135;-54
2023/10/05 02:41:54;;;;;;;6.97;1.60;;;14.50;99.90;;;;;;5033988;28;20525;-54
2023/10/05 02:46:50;;;;;;;8.48;2.20;;;14.50;99.90;;;;;;5037352;28;20072;-56
2023/10/05 02:49:24;;;;;;;9.00;1.50;;;14.50;99.90;;;;;;5056115;28;20045;-54
2023/10/05 02:51:54;;;;;;;;;;;14.40;99.90;;;;;;5064937;28;20044;-53
2023/10/05 02:54:24;;;;;;;9.35;1.63;;;14.40;99.90;;;;;;5048088;28;19920;-53
2023/10/05 02:56:54;;;;;;;7.70;2.28;;;14.40;99.90;;;;;;5045352;28;20052;-52
2023/10/05 02:59:26;;;;;;;8.35;2.38;;;14.40;99.90;;;;;;5022021;28;20123;-52
2023/10/05 03:01:55;;;;;;;8.63;1.50;;;14.40;99.90;;;;;;5019352;28;20053;-54
2023/10/05 03:04:22;;;;;;;13.07;1.67;;;14.40;99.90;;;;;;5053735;28;20411;-55
2023/10/05 03:06:52;;;;;;;6.63;1.42;;;14.40;99.90;;;;;;5041500;28;20059;-54
2023/10/05 03:09:21;;;;;;;10.45;3.17;;;14.40;99.90;;;;;;5052958;28;20045;-55
2023/10/05 03:11:51;;;;;;;6.47;1.80;;;14.40;99.90;;;;;;5008181;28;20044;-56
2023/10/05 03:14:18;;;;;;;12.43;1.77;;;14.40;99.90;;;;;;5067679;28;20037;-55
2023/10/05 03:16:47;;;;;;;13.27;2.28;;;14.30;99.90;;;;;;5058153;28;20056;-55
2023/10/05 03:19:22;;;;;;;5.28;1.88;;;14.30;99.90;;;;;;4998297;28;20140;-55
2023/10/05 03:21:50;;;;;;;8.80;1.55;;;14.40;99.90;;;;;;5050779;28;20427;-53
2023/10/05 03:24:19;;;;;;;10.27;1.60;;;14.30;99.90;;;;;;5049375;28;20056;-54
2023/10/05 03:26:51;;;;;;;7.90;1.50;;;14.30;99.90;;;;;;5049144;28;20060;-52
2023/10/05 03:29:21;;;;;;;9.23;2.15;;;14.40;99.90;;;;;;5066251;28;20041;-54
2023/10/05 03:31:58;;;;;;;5.65;1.70;;;14.40;99.90;;;;;;5055632;28;20045;-61
2023/10/05 03:34:26;;;;;;;4.20;1.20;;;14.30;99.90;;;;;;5069228;28;20045;-54
2023/10/05 03:36:54;;;;;;;10.70;1.70;;;14.30;99.90;;;;;;5061146;28;20059;-54
2023/10/05 03:39:23;;;;;;;6.90;1.63;;;14.30;99.90;;;;;;5049287;28;20059;-54
2023/10/05 03:41:50;;;;;;;5.18;1.33;;;14.40;99.90;;;;;;5035755;28;20048;-55
2023/10/05 03:44:17;;;;;;;7.60;1.67;;;14.40;99.90;;;;;;5068939;28;20076;-55
2023/10/05 03:46:47;;;;;;;6.38;1.80;;;14.40;99.90;;;;;;5058288;28;20054;-54
2023/10/05 03:49:14;;;;;;;6.53;1.27;;;14.40;99.90;;;;;;4993343;28;20045;-57
2023/10/05 03:51:49;;;;;;;6.38;1.50;;;14.40;99.90;;;;;;5002898;28;20496;-54
2023/10/05 03:54:24;;;;;;;9.02;1.40;;;14.40;99.90;;;;;;5066332;28;20061;-56
2023/10/05 03:57:04;;;;;;;9.85;1.45;;;14.50;99.90;;;;;;5007432;28;20139;-55
2023/10/05 03:59:31;;;;;;;10.80;1.70;;;14.40;99.90;;;;;;5035076;28;20049;-56
2023/10/05 04:02:00;;;;;;;11.23;2.00;;;14.40;99.90;;;;;;5055465;28;20486;-53
2023/10/05 04:04:28;;;;;;;3.85;1.30;;;14.50;99.90;;;;;;5065124;28;20435;-56
2023/10/05 04:06:57;;;;;;;7.07;1.60;;;14.40;99.90;;;;;;5015788;28;20134;-54
2023/10/05 04:09:28;;;;;;;7.00;1.55;;;14.40;99.90;;;;;;5048324;28;20056;-54
2023/10/05 04:12:00;;;;;;;7.13;1.80;;;14.40;99.90;;;;;;5052537;28;20414;-55
2023/10/05 04:14:28;;;;;;;8.05;1.58;;;14.40;99.90;;;;;;5023373;28;20098;-52
2023/10/05 04:17:07;;;;;;;7.18;1.67;;;14.40;99.90;;;;;;5030408;28;20171;-54
2023/10/05 04:19:34;;;;;;;7.10;1.40;;;14.40;99.90;;;;;;5016486;28;20106;-53
2023/10/05 04:22:01;;;;;;;6.78;1.73;;;14.40;99.90;;;;;;5034901;28;20103;-59
2023/10/05 04:24:30;;;;;;;6.13;1.75;;;14.40;99.90;;;;;;5048712;28;20046;-54
2023/10/05 04:26:57;;;;;;;6.05;1.80;;;14.40;99.90;;;;;;5038349;28;20209;-54
2023/10/05 04:29:24;;;;;;;4.97;1.60;;;14.40;99.90;;;;;;5026929;28;20044;-51
2023/10/05 04:31:52;;;;;;;14.48;1.85;;;14.40;99.90;;;;;;4991429;28;20091;-56
2023/10/05 04:34:20;;;;;;;8.85;1.88;;;14.40;99.90;;;;;;5006116;28;20070;-54
2023/10/05 04:36:53;;;;;;;11.85;2.55;;;14.40;99.90;;;;;;5045298;28;20135;-52
2023/10/05 04:39:29;;;;;;;6.63;1.80;;;14.40;99.90;;;;;;5047448;28;20049;-51
2023/10/05 04:42:04;;;;;;;4.32;1.38;;;14.30;99.90;;;;;;5004136;28;20050;-52
2023/10/05 04:44:31;;;;;;;9.48;1.65;;;14.40;99.90;;;;;;5039501;28;20077;-52
2023/10/05 04:46:58;;;;;;;7.10;1.88;;;14.30;99.90;;;;;;5029371;28;20266;-52
2023/10/05 04:49:27;;;;;;;11.05;2.20;;;14.30;99.90;;;;;;5036977;28;20127;-55
2023/10/05 04:51:56;;;;;;;8.40;1.88;;;14.40;99.90;;;;;;5067400;28;20056;-54
2023/10/05 04:54:26;;;;;;;5.38;1.45;;;14.40;99.90;;;;;;5062181;28;20423;-52
2023/10/05 04:59:25;;;;;;;7.65;1.60;;;14.40;99.90;;;;;;5058940;28;20098;-52
2023/10/05 05:07:07;;;;;;;15.25;1.90;;;14.40;99.90;;;;;;5028763;28;20083;-54
2023/10/05 05:09:44;;;;;;;9.65;1.50;;;14.50;99.90;;;;;;5052183;28;20131;-56
2023/10/05 05:12:20;;;;;;;5.43;1.65;;;14.40;99.90;;;;;;5011067;28;20049;-52
2023/10/05 05:14:49;;;;;;;8.43;1.13;;;14.40;99.90;;;;;;4998646;28;20443;-54
2023/10/05 05:17:23;;;;;;;8.15;1.40;;;14.40;99.90;;;;;;5033132;28;20048;-54
2023/10/05 05:19:55;;;;;;;3.95;1.40;;;14.40;99.90;;;;;;5019057;28;20045;-59
2023/10/05 05:22:26;;;;;;;4.22;1.42;;;14.40;99.90;;;;;;5017027;28;20134;-53
2023/10/05 05:24:54;;;;;;;4.70;1.80;;;14.30;99.90;;;;;;5012573;28;20098;-53
2023/10/05 05:27:21;;;;;;;6.55;2.10;;;14.40;99.90;;;;;;4995761;28;20081;-53
2023/10/05 05:29:51;;;;;;;10.30;2.00;;;14.30;99.90;;;;;;5045375;28;20055;-54
2023/10/05 05:32:22;;;;;;;15.90;2.25;;;14.40;99.90;;;;;;5051210;28;20447;-53
2023/10/05 05:34:50;;;;;;;7.22;1.33;;;14.30;99.90;;;;;;5033345;28;20120;-52
2023/10/05 05:37:28;;;;;;;7.40;1.85;;;14.30;99.90;;;;;;5047896;28;20044;-51
2023/10/05 05:39:57;;;;;;;14.98;2.75;;;14.30;99.90;;;;;;5026428;28;20048;-53
2023/10/05 05:42:27;;;;;;;6.32;2.20;;;14.40;99.90;;;;;;5020111;28;20518;-54
2023/10/05 05:44:55;;;;;;;4.68;1.67;;;14.40;99.90;;;;;;5019891;28;20044;-53
2023/10/05 05:47:22;;;;;;;9.13;1.80;;;14.40;99.90;;;;;;5051196;28;20045;-55
2023/10/05 05:49:50;;;;;;;8.50;1.77;;;14.40;99.90;;;;;;5036623;28;20128;-55
2023/10/05 05:52:17;;;;;;;7.93;1.73;;;14.40;99.90;;;;;;5028496;28;20316;-55
2023/10/05 05:54:47;;;;;;;9.00;1.80;;;14.40;99.90;;;;;;5039883;28;20476;-54
2023/10/05 05:57:19;;;;;;;12.63;2.10;;;14.40;99.90;;;;;;5012750;28;20137;-54
2023/10/05 05:59:46;;;;;;;12.10;1.70;;;14.40;99.90;;;;;;5030439;28;20057;-54
2023/10/05 06:02:13;;;;;;;8.00;1.98;;;14.40;99.90;;;;;;5023546;28;20526;-52
2023/10/05 06:04:41;;;;;;;5.63;1.73;;;14.50;99.90;;;;;;5064205;28;20045;-54
2023/10/05 06:07:11;;;;;;;9.70;1.65;;;14.40;99.90;;;;;;5051788;28;20044;-52
2023/10/05 06:09:45;;;;;;;9.70;2.00;;;14.40;99.90;;;;;;5015476;28;20075;-54
2023/10/05 06:12:12;;;;;;;9.52;2.13;;;14.40;99.90;;;;;;5055009;28;20072;-52
2023/10/05 06:14:40;;;;;;;6.72;1.40;;;14.50;99.90;;;;;;5058274;28;20044;-50
2023/10/05 06:17:10;;;;;;;5.88;1.40;;;14.40;99.90;;;;;;5016306;28;20643;-55
2023/10/05 06:19:37;;;;;;;12.20;2.05;;;14.50;99.90;;;;;;5047260;28;20043;-53
2023/10/05 06:22:06;;;;;;;10.40;1.63;;;14.50;99.90;;;;;;5050534;28;20048;-54
2023/10/05 06:24:38;;;;;;;7.72;1.65;;;14.50;99.90;;;;;;5045539;28;20055;-55
2023/10/05 06:27:06;;;;;;;6.03;2.20;;;14.40;99.90;;;;;;5031581;28;20055;-55
2023/10/05 06:29:33;;;;;;;3.92;1.60;;;14.40;99.90;;;;;;5056181;28;20202;-54
2023/10/05 06:32:02;;;;;;;6.82;1.75;;;14.40;99.90;;;;;;5047217;28;20188;-55
2023/10/05 06:34:29;;;;;;;5.57;1.92;;;14.40;99.90;;;;;;5050047;28;20049;-50
2023/10/05 06:36:56;;;;;;;13.20;2.55;;;14.40;99.90;;;;;;5027243;28;20106;-49
2023/10/05 06:39:27;;;;;;;12.57;2.25;;;14.50;99.90;;;;;;5027303;28;20045;-53
2023/10/05 06:41:54;;;;;;;10.52;2.05;;;14.40;99.90;;;;;;5021019;28;20328;-52
2023/10/05 06:44:23;;;;;;;7.72;2.00;;;14.40;99.90;;;;;;5009870;28;20042;-49
2023/10/05 06:46:50;;;;;;;6.65;1.70;;;14.50;99.90;;;;;;5009188;28;20136;-52
2023/10/05 06:49:17;;;;;;;12.43;2.22;;;14.50;99.90;;;;;;5046226;28;20053;-50
2023/10/05 06:51:45;;;;;;;5.30;1.20;;;14.50;99.90;;;;;;5034726;28;20547;-50
2023/10/05 06:54:15;;;;;;;11.25;1.67;;;14.50;99.90;;;;;;5045533;28;20080;-52
2023/10/05 06:56:48;;;;;;;13.63;2.38;;;14.50;99.90;;;;;;5050006;28;20460;-51
2023/10/05 06:59:15;;;;;;;11.75;2.47;;;14.50;99.90;;;;;;5050056;28;20055;-50
2023/10/05 07:01:42;;;;;;;9.82;1.92;;;14.50;99.90;;;;;;5054033;28;20049;-53
2023/10/05 07:04:11;;;;;;;8.38;2.05;;;14.60;99.90;;;;;;5033042;28;20036;-51
2023/10/05 07:06:38;;;;;;;15.13;2.45;;;14.50;99.90;;;;;;5045534;28;20049;-51
2023/10/05 07:09:05;;;;;;;9.13;1.80;;;14.60;99.90;;;;;;5040244;28;20053;-53
2023/10/05 07:11:32;;;;;;;6.90;2.53;;;14.60;99.90;;;;;;5037444;28;20049;-53
2023/10/05 07:14:00;;;;;;;7.38;1.95;;;14.50;99.90;;;;;;5020778;28;20558;-50
2023/10/05 07:16:29;;;;;;;9.38;2.13;;;14.50;99.90;;;;;;5019084;28;20548;-53
2023/10/05 07:18:55;;;;;;;12.07;2.05;;;14.50;99.90;;;;;;5049768;28;20088;-53
2023/10/05 07:21:23;;;;;;;6.93;1.80;;;14.50;99.90;;;;;;5040390;28;20561;-56
2023/10/05 07:23:50;;;;;;;12.25;2.38;;;14.50;99.90;;;;;;5028521;28;20060;-50
2023/10/05 07:26:16;;;;;;;8.70;2.67;;;14.50;99.90;;;;;;5054354;28;20089;-51
2023/10/05 07:28:43;;;;;;;9.05;1.60;;;14.60;99.90;;;;;;5048741;28;20052;-52
2023/10/05 07:31:10;;;;;;;8.13;1.50;;;14.60;99.90;;;;;;5014458;28;20591;-52
2023/10/05 07:33:38;;;;;;;10.48;1.73;;;14.70;99.90;;;;;;5034164;28;20136;-49
2023/10/05 07:36:05;;;;;;;10.18;2.17;;;14.70;99.90;;;;;;5036223;28;20099;-49
2023/10/05 07:38:32;;;;;;;8.20;2.15;;;14.70;99.90;;;;;;5030348;28;20103;-52
2023/10/05 07:41:02;;;;;;;6.15;1.70;;;14.70;99.90;;;;;;5052194;28;20045;-50
2023/10/05 07:43:32;;;;;;;5.18;1.17;;;14.80;99.90;;;;;;5020346;28;20048;-53
2023/10/05 07:46:06;;;;;;;6.30;1.35;;;14.90;99.90;;;;;;5018870;28;20338;-52
2023/10/05 07:48:33;;;;;;;5.35;2.13;;;15.00;99.90;;;;;;5047912;28;20049;-50
2023/10/05 07:51:01;;;;;;;5.07;1.77;;;15.00;99.90;;;;;;5033421;28;20131;-53
2023/10/05 07:53:27;;;;;;;10.00;3.13;;;15.10;99.90;;;;;;5043311;28;20060;-51
2023/10/05 07:55:54;;;;;;;10.43;1.88;;;15.20;99.90;;;;;;5055220;28;20511;-51
2023/10/05 07:58:22;;;;;;;6.80;2.03;;;15.20;99.90;;;;;;5045058;28;20060;-49
2023/10/05 08:00:49;;;;;;;7.10;1.70;;;15.30;99.90;;;;;;5030910;28;20069;-53
2023/10/05 08:03:17;;;;;;;11.40;2.10;;;15.30;99.90;;;;;;5023406;28;20064;-53
2023/10/05 08:05:44;;;;;;;5.22;1.65;;;15.40;99.90;;;;;;5047297;28;20056;-53
2023/10/05 08:08:11;;;;;;;6.72;1.58;;;15.30;99.90;;;;;;5028382;28;20088;-52
2023/10/05 08:10:38;;;;;;;19.05;2.65;;;15.40;99.90;;;;;;5052711;28;20052;-52
2023/10/05 08:13:05;;;;;;;9.85;2.97;;;15.40;99.90;;;;;;5041829;28;20045;-53
2023/10/05 08:15:34;;;;;;;6.60;2.05;;;15.40;99.90;;;;;;5049084;28;20143;-54
2023/10/05 08:18:01;;;;;;;6.93;1.70;;;15.50;99.90;;;;;;5054471;28;20443;-54
2023/10/05 08:20:29;;;;;;;7.75;2.08;;;15.60;99.90;;;;;;5030648;28;20040;-51
2023/10/05 08:22:56;;;;;;;10.93;1.90;;;15.50;99.90;;;;;;5028252;28;20049;-51
2023/10/05 08:25:24;;;;;;;10.00;2.20;;;15.60;99.90;;;;;;5012700;28;20038;-49
2023/10/05 08:27:51;;;;;;;8.02;2.05;;;15.60;99.90;;;;;;5046983;28;20056;-53
2023/10/05 08:30:19;;;;;;;15.48;2.30;;;15.60;99.90;;;;;;5045820;28;20040;-53
2023/10/05 08:32:47;;;;;;;7.78;2.08;;;15.70;99.90;;;;;;5003049;28;20052;-52
2023/10/05 08:35:17;;;;;;;10.90;2.28;;;15.70;99.90;;;;;;5002915;28;20048;-51
2023/10/05 08:37:50;;;;;;;9.82;2.17;;;15.70;99.90;;;;;;5013781;28;20048;-50
2023/10/05 08:43:16;;;;;;;9.13;1.88;;;15.80;99.90;;;;;;5039546;28;20049;-53
2023/10/05 08:45:50;;;;;;;8.77;2.47;;;15.90;99.90;;;;;;5042442;28;20076;-50
2023/10/05 08:48:35;;;;;;;6.18;1.60;;;15.90;99.90;;;;;;5043512;28;20060;-51
2023/10/05 08:51:12;;;;;;;9.20;1.40;;;15.90;99.90;;;;;;5043447;28;20041;-50
2023/10/05 08:53:57;;;;;;;12.27;2.00;;;16.00;99.90;;;;;;5046756;28;20053;-55
2023/10/05 08:56:25;;;;;;;10.63;1.80;;;16.10;99.90;;;;;;5020330;28;20049;-52
2023/10/05 08:58:52;;;;;;;11.48;2.28;;;16.10;99.90;;;;;;5047712;28;20049;-54
2023/10/05 09:01:31;;;;;;;13.35;2.53;;;16.20;99.90;;;;;;5046527;28;20045;-54
2023/10/05 09:06:52;;;;;;;7.03;2.67;;;16.30;99.90;;;;;;5041182;28;20045;-50
2023/10/05 09:09:37;;;;;;;26.42;10.73;;;16.30;99.90;;;;;;5044276;28;20045;-53
2023/10/05 09:12:37;;;;;;;11.73;3.45;;;16.30;99.90;;;;;;5049634;28;20036;-52
2023/10/05 09:17:58;;;;;;;72.22;35.17;;;16.40;99.90;;;;;;5042653;28;21085;-53
2023/10/05 09:20:32;;;;;;;;;;;16.40;99.90;;;;;;5031255;28;20065;-53
2023/10/05 09:23:07;;;;;;;12.30;4.07;;;16.40;99.90;;;;;;5044714;28;19925;-54
2023/10/05 09:25:38;;;;;;;10.07;2.55;;;16.40;99.90;;;;;;5027857;28;20041;-55
2023/10/05 09:28:14;;;;;;;10.25;4.20;;;16.50;99.90;;;;;;5050753;28;20059;-53
2023/10/05 09:30:55;;;;;;;15.82;3.15;;;16.60;99.90;;;;;;5014871;28;20445;-52
2023/10/05 09:33:26;;;;;;;6.40;1.77;;;16.70;99.90;;;;;;5028263;28;20135;-51
2023/10/05 09:36:01;;;;;;;16.42;2.85;;;16.80;99.90;;;;;;5042843;28;20207;-52
2023/10/05 09:38:28;;;;;;;10.73;4.55;;;16.90;99.90;;;;;;5042382;28;20444;-56
2023/10/05 09:40:55;;;;;;;19.40;4.85;;;16.90;99.90;;;;;;5013542;28;20041;-59
2023/10/05 09:43:22;;;;;;;46.65;17.13;;;17.00;99.90;;;;;;5046594;28;20396;-56
2023/10/05 09:45:52;;;;;;;15.55;4.07;;;17.00;99.90;;;;;;5049080;28;20040;-54
2023/10/05 09:48:20;;;;;;;13.95;2.95;;;17.00;99.90;;;;;;5028871;28;20060;-52
2023/10/05 09:50:47;;;;;;;21.80;8.00;;;16.90;99.90;;;;;;5050504;28;20055;-54
2023/10/05 09:53:18;;;;;;;47.55;25.17;;;16.90;99.90;;;;;;5049901;28;20049;-55
2023/10/05 09:55:59;;;;;;;12.95;5.35;;;17.00;99.90;;;;;;5026806;28;20099;-54
2023/10/05 09:58:26;;;;;;;11.82;3.30;;;17.10;99.90;;;;;;5020186;28;20502;-54
2023/10/05 10:00:55;;;;;;;8.65;2.55;;;17.10;99.90;;;;;;5023279;28;20041;-53
2023/10/05 10:03:22;;;;;;;7.35;2.90;;;17.20;99.90;;;;;;5028963;28;20048;-53
2023/10/05 10:06:08;;;;;;;8.18;2.58;;;17.20;99.90;;;;;;5023951;28;20041;-53
2023/10/05 10:08:42;;;;;;;;;;;17.20;99.90;;;;;;5019338;28;20102;-53
2023/10/05 10:11:18;;;;;;;;;;;17.10;99.90;;;;;;5049464;28;19975;-53
2023/10/05 10:14:15;;;;;;;7.00;1.88;;;17.20;99.90;;;;;;5044942;28;20349;-53
2023/10/05 10:16:42;;;;;;;8.20;1.48;;;17.30;99.90;;;;;;5049237;28;20950;-53
2023/10/05 10:19:19;;;;;;;11.50;2.08;;;17.50;99.90;;;;;;5046275;28;20044;-53
2023/10/05 10:22:07;;;;;;;9.77;2.20;;;17.60;99.90;;;;;;5030693;28;20064;-52
2023/10/05 10:24:34;;;;;;;7.25;2.00;;;17.60;99.90;;;;;;5045731;28;20037;-55
2023/10/05 10:27:08;;;;;;;8.80;2.33;;;17.60;99.90;;;;;;5040622;28;20071;-53
2023/10/05 10:29:58;;;;;;;9.10;2.30;;;17.60;99.90;;;;;;5050239;28;20052;-52
2023/10/05 10:32:31;;;;;;;7.35;1.83;;;17.70;99.90;;;;;;5052804;28;20125;-50
2023/10/05 10:35:27;;;;;;;8.68;1.85;;;17.80;99.90;;;;;;5053411;28;20045;-49
2023/10/05 10:37:49;;;;;;;9.48;1.92;;;17.80;99.90;;;;;;5056243;28;20044;-49
2023/10/05 10:45:40;;;;;;;8.60;1.83;;;18.00;99.90;;;;;;5053606;28;20056;-50
2023/10/05 10:48:31;;;;;;;6.85;1.77;;;18.00;99.90;;;;;;5067686;28;20051;-52
2023/10/05 10:51:00;;;;;;;4.63;1.75;;;18.00;99.90;;;;;;5065371;28;20495;-50
2023/10/05 10:53:33;;;;;;;8.00;2.22;;;18.00;99.90;;;;;;5049330;28;20394;-53
2023/10/05 10:56:17;;;;;;;11.27;2.05;;;18.00;99.90;;;;;;5053636;28;20533;-53
2023/10/05 10:58:44;;;;;;;;;;;17.90;99.90;;;;;;5030084;28;20099;-49
2023/10/05 11:01:28;;;;;;;11.25;2.55;;;18.00;99.90;;;;;;5047540;28;20520;-50
2023/10/05 11:04:04;;;;;;;;;;;18.00;99.90;;;;;;5014501;28;20050;-51
2023/10/05 11:06:36;;;;;;;5.40;1.45;;;18.10;99.90;;;;;;5055463;28;19927;-52
2023/10/05 11:09:09;;;;;;;5.88;1.60;;;18.20;99.90;;;;;;5028977;28;20095;-49
2023/10/05 11:11:39;;;;;;;5.90;1.58;;;18.30;99.90;;;;;;5033491;28;20510;-54
2023/10/05 11:14:06;;;;;;;5.82;1.90;;;18.20;99.90;;;;;;5031830;28;20496;-53
2023/10/05 11:16:45;;;;;;;8.40;1.90;;;18.20;99.90;;;;;;5034921;28;20053;-52
2023/10/05 11:19:13;;;;;;;9.98;2.25;;;18.20;99.90;;;;;;5051917;28;20407;-50
2023/10/05 11:22:04;;;;;;;11.00;1.92;;;18.30;99.90;;;;;;5049867;28;20080;-51
2023/10/05 11:24:32;;;;;;;5.43;1.90;;;18.30;99.90;;;;;;5012738;28;20175;-51
2023/10/05 11:29:42;;;;;;;5.75;1.77;;;18.40;99.90;;;;;;5034234;28;20134;-54
2023/10/05 11:32:12;;;;;;;6.82;1.80;;;18.30;99.90;;;;;;5052674;28;20499;-52
2023/10/05 11:35:13;;;;;;;4.03;1.60;;;18.20;99.90;;;;;;5035779;28;20049;-51
2023/10/05 11:37:58;;;;;;;8.35;1.80;;;18.20;99.90;;;;;;5053649;28;20088;-52
2023/10/05 11:40:31;;;;;;;10.68;1.85;;;18.30;99.90;;;;;;5068644;28;20048;-50
2023/10/05 11:43:04;;;;;;;7.40;2.05;;;18.20;99.90;;;;;;5062681;28;20055;-54
2023/10/05 11:45:33;;;;;;;7.00;1.40;;;18.20;99.90;;;;;;5048570;28;20055;-52
2023/10/05 11:48:11;;;;;;;6.90;2.13;;;18.20;99.90;;;;;;5060546;28;20100;-51
2023/10/05 11:50:51;;;;;;;9.40;2.15;;;18.20;99.90;;;;;;5049158;28;20048;-51
2023/10/05 11:53:23;;;;;;;6.32;1.45;;;18.20;99.90;;;;;;5053651;28;20106;-54
2023/10/05 11:55:50;;;;;;;6.07;1.70;;;18.20;99.90;;;;;;5068798;28;20048;-54
2023/10/05 11:58:18;;;;;;;6.07;1.77;;;18.20;99.90;;;;;;5063353;28;20375;-53
2023/10/05 12:00:45;;;;;;;5.45;1.95;;;18.20;99.90;;;;;;5028833;28;20124;-54
2023/10/05 12:03:12;;;;;;;6.85;2.05;;;18.20;99.90;;;;;;5046230;28;20455;-53
2023/10/05 12:05:39;;;;;;;7.07;2.25;;;18.20;99.90;;;;;;5054329;28;20087;-53
2023/10/05 12:08:07;;;;;;;6.70;1.75;;;18.20;99.90;;;;;;5052098;28;20191;-53
2023/10/05 12:10:33;;;;;;;7.80;1.48;;;18.40;99.90;;;;;;5064043;28;20049;-53
2023/10/05 12:13:02;;;;;;;6.57;1.92;;;18.50;99.90;;;;;;5052806;28;20053;-57
2023/10/05 12:15:33;;;;;;;4.55;1.70;;;18.60;99.90;;;;;;5040867;28;20466;-50
2023/10/05 12:18:00;;;;;;;7.45;2.22;;;18.60;99.90;;;;;;5051391;28;20393;-54
2023/10/05 12:20:28;;;;;;;6.65;1.45;;;18.60;99.90;;;;;;5058373;28;20044;-51
2023/10/05 12:22:59;;;;;;;8.45;2.65;;;18.60;99.90;;;;;;5064787;28;20098;-51
2023/10/05 12:25:27;;;;;;;10.18;2.30;;;18.60;99.90;;;;;;5057941;28;20040;-53
2023/10/05 12:27:55;;;;;;;7.70;1.77;;;18.60;99.90;;;;;;5064161;28;20504;-53
2023/10/05 12:30:22;;;;;;;7.55;1.95;;;18.70;99.90;;;;;;5058724;28;20452;-54
2023/10/05 12:32:51;;;;;;;5.35;1.95;;;18.70;99.90;;;;;;5048332;28;20546;-53
2023/10/05 12:35:18;;;;;;;6.25;1.60;;;18.80;99.90;;;;;;5056140;28;20127;-54
2023/10/05 12:37:46;;;;;;;8.75;1.77;;;18.90;99.90;;;;;;5066537;28;20063;-54
2023/10/05 12:40:19;;;;;;;6.97;2.58;;;19.10;99.90;;;;;;5041890;28;20063;-54
2023/10/05 12:42:51;;;;;;;6.07;1.75;;;19.30;99.90;;;;;;5047794;28;20068;-54
2023/10/05 12:45:28;;;;;;;8.73;2.42;;;19.20;99.90;;;;;;5055540;28;20102;-51
2023/10/05 12:47:55;;;;;;;6.45;2.22;;;19.30;99.90;;;;;;5067499;28;20440;-54
2023/10/05 12:50:24;;;;;;;5.35;2.00;;;19.40;99.90;;;;;;5041756;28;20044;-54
2023/10/05 12:52:51;;;;;;;6.53;2.05;;;19.40;99.90;;;;;;5046948;28;20369;-55
2023/10/05 12:55:19;;;;;;;6.13;2.47;;;19.40;99.90;;;;;;5051707;28;20060;-52
2023/10/05 12:57:50;;;;;;;7.78;2.10;;;19.60;99.90;;;;;;5067613;28;20143;-50
2023/10/05 13:00:44;;;;;;;10.10;1.98;;;19.70;99.90;;;;;;5054805;28;20049;-50
2023/10/05 13:03:12;;;;;;;6.25;1.75;;;19.70;99.90;;;;;;5027075;28;20049;-51
2023/10/05 13:05:43;;;;;;;7.20;2.00;;;19.80;99.90;;;;;;5030704;28;20080;-53
2023/10/05 13:08:10;;;;;;;7.80;2.42;;;19.90;99.90;;;;;;5067271;28;20044;-54
2023/10/05 13:10:38;;;;;;;8.50;2.00;;;20.00;99.90;;;;;;5062833;28;20072;-53
2023/10/05 13:13:17;;;;;;;6.20;1.70;;;19.90;99.90;;;;;;5047661;28;20073;-53
2023/10/05 13:15:45;;;;;;;4.00;1.50;;;19.70;99.90;;;;;;5057960;28;20052;-50
2023/10/05 13:18:18;;;;;;;6.93;2.75;;;19.70;99.90;;;;;;5029979;28;20545;-53
2023/10/05 13:20:49;;;;;;;5.93;1.83;;;19.80;99.90;;;;;;5056728;28;20231;-53
2023/10/05 13:23:19;;;;;;;7.40;1.88;;;20.00;99.90;;;;;;5048739;28;20057;-55
2023/10/05 13:25:49;;;;;;;5.22;2.20;;;20.00;99.90;;;;;;5055158;28;20054;-52
2023/10/05 13:28:18;;;;;;;5.15;1.75;;;19.90;99.90;;;;;;5049764;28;20048;-54
2023/10/05 13:30:50;;;;;;;8.40;1.80;;;19.90;99.90;;;;;;5051074;28;20084;-53
2023/10/05 13:33:21;;;;;;;6.90;2.28;;;20.00;99.90;;;;;;5061741;28;20453;-54
2023/10/05 13:35:50;;;;;;;9.00;1.98;;;20.10;99.90;;;;;;5056196;28;20830;-53
2023/10/05 13:38:18;;;;;;;6.32;2.00;;;20.00;99.90;;;;;;5046288;28;20049;-53